createdAt,value
2023-04-02T00:02:23.267Z,27.27
2023-04-02T00:05:16.780Z,34.97
2023-04-02T00:07:49.079Z,30.15
2023-04-02T00:10:32.830Z,32.88
2023-04-02T00:13:23.783Z,28.58
2023-04-02T00:15:57.837Z,30.42
2023-04-02T00:18:27.512Z,29.90
2023-04-02T00:21:09.175Z,31.00
2023-04-02T00:23:41.363Z,31.35
2023-04-02T00:26:32.735Z,28.35
2023-04-02T00:29:01.421Z,29.20
2023-04-02T00:31:32.268Z,32.47
2023-04-02T00:34:02.478Z,29.85
2023-04-02T00:36:35.510Z,30.02
2023-04-02T00:39:08.538Z,31.42
2023-04-02T00:41:38.853Z,28.90
2023-04-02T00:44:06.631Z,29.15
2023-04-02T00:46:47.258Z,32.40
2023-04-02T00:49:25.059Z,30.90
2023-04-02T00:52:00.271Z,31.60
2023-04-02T00:54:31.420Z,29.92
2023-04-02T00:56:59.420Z,30.90
2023-04-02T00:59:36.918Z,28.40
2023-04-02T01:02:18.660Z,28.17
2023-04-02T01:04:57.370Z,27.30
2023-04-02T01:07:45.469Z,28.50
2023-04-02T01:10:51.945Z,28.83
2023-04-02T01:13:38.244Z,28.00
2023-04-02T01:16:14.204Z,26.40
2023-04-02T01:18:46.485Z,27.75
2023-04-02T01:21:32.770Z,27.08
2023-04-02T01:24:15.148Z,29.63
2023-04-02T01:26:59.658Z,27.70
2023-04-02T01:29:42.125Z,28.60
2023-04-02T01:32:14.164Z,29.20
2023-04-02T01:34:44.858Z,25.60
2023-04-02T01:37:18.050Z,31.35
2023-04-02T01:40:05.646Z,29.45
2023-04-02T01:43:06.533Z,29.88
2023-04-02T01:45:35.204Z,29.98
2023-04-02T01:48:14.735Z,33.03
2023-04-02T01:50:47.886Z,30.52
2023-04-02T01:53:21.010Z,29.65
2023-04-02T02:02:24.159Z,29.23
2023-04-02T02:04:52.029Z,27.40
2023-04-02T02:07:21.662Z,28.95
2023-04-02T02:09:56.354Z,28.70
2023-04-02T02:16:15.117Z,29.05
2023-04-02T02:18:43.330Z,31.25
2023-04-02T02:22:27.277Z,33.83
2023-04-02T02:25:15.697Z,29.10
2023-04-02T02:28:26.177Z,26.20
2023-04-02T02:31:41.967Z,31.30
2023-04-02T02:34:18.764Z,28.02
2023-04-02T02:37:00.812Z,29.63
2023-04-02T02:43:37.318Z,31.15
2023-04-02T02:46:08.070Z,33.20
2023-04-02T02:49:00.453Z,31.58
2023-04-02T02:51:46.272Z,32.22
2023-04-02T02:54:55.305Z,31.10
2023-04-02T02:58:04.664Z,31.98
2023-04-02T03:00:59.113Z,36.97
2023-04-02T03:03:31.508Z,36.03
2023-04-02T03:11:01.201Z,31.38
2023-04-02T03:13:35.587Z,32.65
2023-04-02T03:17:14.274Z,35.45
2023-04-02T03:20:10.754Z,30.98
2023-04-02T03:22:44.413Z,31.25
2023-04-02T03:26:02.475Z,32.65
2023-04-02T03:28:58.467Z,31.15
2023-04-02T03:31:33.501Z,30.50
2023-04-02T03:34:40.872Z,29.95
2023-04-02T03:37:23.019Z,30.63
2023-04-02T03:40:02.109Z,31.23
2023-04-02T03:42:41.792Z,30.00
2023-04-02T03:46:10.553Z,31.02
2023-04-02T03:49:06.281Z,28.80
2023-04-02T03:52:08.241Z,31.48
2023-04-02T03:55:38.294Z,28.80
2023-04-02T04:02:57.595Z,30.52
2023-04-02T04:09:46.875Z,30.95
2023-04-02T04:17:17.381Z,29.63
2023-04-02T04:23:51.435Z,29.60
2023-04-02T04:26:53.619Z,30.23
2023-04-02T04:29:31.051Z,29.45
2023-04-02T04:33:34.180Z,29.15
2023-04-02T04:41:33.039Z,29.25
2023-04-02T04:48:39.722Z,24.88
2023-04-02T04:51:30.226Z,26.52
2023-04-02T04:54:03.500Z,22.67
2023-04-02T05:01:19.019Z,16.80
2023-04-02T05:05:07.711Z,15.10
2023-04-02T05:07:48.013Z,16.58
2023-04-02T05:10:33.262Z,18.63
2023-04-02T05:13:14.026Z,16.10
2023-04-02T05:20:24.102Z,20.25
2023-04-02T05:23:00.962Z,24.42
2023-04-02T05:25:33.402Z,24.73
2023-04-02T05:28:30.139Z,23.45
2023-04-02T05:31:09.304Z,22.92
2023-04-02T05:38:26.922Z,23.40
2023-04-02T05:45:47.634Z,25.02
2023-04-02T05:48:20.197Z,26.17
2023-04-02T05:50:53.144Z,24.50
2023-04-02T05:53:38.085Z,29.20
2023-04-02T05:57:06.651Z,28.50
2023-04-02T05:59:56.745Z,30.48
2023-04-02T06:02:24.470Z,32.78
2023-04-02T06:06:22.940Z,33.08
2023-04-02T06:08:57.833Z,32.35
2023-04-02T06:11:56.992Z,36.55
2023-04-02T06:14:49.929Z,34.10
2023-04-02T06:17:19.943Z,31.63
2023-04-02T06:19:48.650Z,33.40
2023-04-02T06:22:22.509Z,33.67
2023-04-02T06:25:01.798Z,34.85
2023-04-02T06:27:42.115Z,32.92
2023-04-02T06:31:03.618Z,31.38
2023-04-02T06:34:01.799Z,30.05
2023-04-02T06:36:34.845Z,31.52
2023-04-02T06:39:19.901Z,30.45
2023-04-02T06:42:20.024Z,32.63
2023-04-02T06:45:23.391Z,31.20
2023-04-02T06:48:21.657Z,30.20
2023-04-02T06:51:19.051Z,34.85
2023-04-02T06:54:32.998Z,33.50
2023-04-02T07:00:42.515Z,32.20
2023-04-02T07:03:44.097Z,32.50
2023-04-02T07:06:22.381Z,30.77
2023-04-02T07:09:26.063Z,30.73
2023-04-02T07:11:56.335Z,28.85
2023-04-02T07:14:24.090Z,29.50
2023-04-02T07:16:51.904Z,30.88
2023-04-02T07:19:31.364Z,31.55
2023-04-02T07:23:09.582Z,30.75
2023-04-02T07:25:37.316Z,31.65
2023-04-02T07:28:07.904Z,37.22
2023-04-02T07:30:35.824Z,27.58
2023-04-02T07:33:03.463Z,32.85
2023-04-02T07:35:31.195Z,32.53
2023-04-02T07:37:58.892Z,30.48
2023-04-02T08:20:50.496Z,24.42
2023-04-02T08:23:53.592Z,25.48
2023-04-02T08:26:21.251Z,24.90
2023-04-02T08:28:48.917Z,20.85
2023-04-02T08:31:17.330Z,21.58
2023-04-02T08:34:13.836Z,18.83
2023-04-02T08:36:44.297Z,17.52
2023-04-02T08:39:12.819Z,12.77
2023-04-02T08:42:04.445Z,16.35
2023-04-02T08:46:58.611Z,13.55
2023-04-02T10:36:52.719Z,8.52
2023-04-02T10:39:40.673Z,9.73
2023-04-02T10:42:30.630Z,10.20
2023-04-02T10:45:12.641Z,9.82
2023-04-02T10:48:12.296Z,8.88
2023-04-02T10:51:11.300Z,9.88
2023-04-02T10:58:20.661Z,9.93
2023-04-02T11:24:05.065Z,8.13
2023-04-02T11:26:41.504Z,12.05
2023-04-02T11:37:10.036Z,9.55
2023-04-02T11:40:11.910Z,10.18
2023-04-02T11:43:25.497Z,11.13
2023-04-02T11:46:03.365Z,11.40
2023-04-02T11:48:37.674Z,10.82
2023-04-02T11:51:23.472Z,1.60
2023-04-02T11:54:25.886Z,1.83
2023-04-02T12:01:28.575Z,4.40
2023-04-02T12:08:08.391Z,0.80
2023-04-02T12:15:34.944Z,2.13
2023-04-02T12:19:18.986Z,2.05
2023-04-02T12:22:39.268Z,1.23
2023-04-02T12:25:58.655Z,0.57
2023-04-02T12:37:10.546Z,1.45
2023-04-02T12:40:41.337Z,0.75
2023-04-02T12:44:16.446Z,1.33
2023-04-02T12:46:49.021Z,0.90
2023-04-02T12:54:13.362Z,1.55
2023-04-02T13:12:37.459Z,0.52
2023-04-02T13:20:59.952Z,0.98
2023-04-02T13:24:47.184Z,0.40
2023-04-02T13:28:07.004Z,0.40
2023-04-02T13:31:39.772Z,0.43
2023-04-02T13:35:00.375Z,0.60
2023-04-02T13:37:30.693Z,0.52
2023-04-02T13:41:18.453Z,1.13
2023-04-02T13:43:46.433Z,0.35
2023-04-02T13:51:07.271Z,0.50
2023-04-02T13:58:04.863Z,0.38
2023-04-02T14:01:52.426Z,0.40
2023-04-02T14:06:12.680Z,0.30
2023-04-02T14:09:02.941Z,1.02
2023-04-02T14:12:15.669Z,0.63
2023-04-02T15:25:29.096Z,0.93
2023-04-02T15:29:28.804Z,0.80
2023-04-02T15:32:53.327Z,0.70
2023-04-02T15:36:26.797Z,0.63
2023-04-02T15:39:22.533Z,1.08
2023-04-02T15:42:14.174Z,0.80
2023-04-02T15:44:55.244Z,1.00
2023-04-02T15:48:19.016Z,3.22
2023-04-02T15:52:08.040Z,1.25
2023-04-02T15:54:50.208Z,1.00
2023-04-02T15:57:42.710Z,0.68
2023-04-02T16:21:34.043Z,1.30
2023-04-02T16:28:24.600Z,3.75
2023-04-02T16:31:34.822Z,7.88
2023-04-02T16:39:36.748Z,9.68
2023-04-02T16:45:36.061Z,4.25
2023-04-02T16:54:36.691Z,1.50
2023-04-02T16:57:10.493Z,2.25
2023-04-02T16:59:46.015Z,2.92
2023-04-02T17:02:50.233Z,2.40
2023-04-02T17:05:32.602Z,2.15
2023-04-02T17:08:44.483Z,1.23
2023-04-02T17:11:42.261Z,2.83
2023-04-02T17:15:27.230Z,1.33
2023-04-02T17:48:28.914Z,2.92
2023-04-02T17:51:51.190Z,2.92
2023-04-02T17:59:02.601Z,5.70
2023-04-02T18:21:56.220Z,9.60
2023-04-02T18:27:42.180Z,9.13
2023-04-02T18:42:38.413Z,9.93
2023-04-02T18:45:52.776Z,11.40
2023-04-02T18:49:02.616Z,9.40
2023-04-02T18:52:02.850Z,11.30
2023-04-02T18:55:13.577Z,13.63
2023-04-02T21:15:06.679Z,5.32
2023-04-02T21:41:53.377Z,3.65
2023-04-02T22:24:19.117Z,6.03
2023-04-02T22:34:46.802Z,39.83
2023-04-02T22:38:07.689Z,28.55
2023-04-02T22:45:22.533Z,12.85
2023-04-02T22:53:38.216Z,5.78
2023-04-02T23:10:11.348Z,19.77
2023-04-02T23:13:11.454Z,17.58
2023-04-02T23:20:47.770Z,5.10
2023-04-02T23:24:07.785Z,5.35
2023-04-02T23:27:03.972Z,6.32
2023-04-02T23:30:02.439Z,4.93
2023-04-02T23:37:25.012Z,5.50
2023-04-02T23:43:26.114Z,3.40
2023-04-02T23:46:38.398Z,5.25
2023-04-02T23:49:56.862Z,6.00
2023-04-02T23:52:50.141Z,4.88
